Terminal Aerodrome Forecast
Issued by NWS Norman, OK

Home | Current Version | Previous Version | Text Only | Print | Product List | Glossary On
Versions: 1 2 3 4 5 6 7 8 9 10 11 12 13 14 15 16 17 18 19 20 21 22 23 24 25 26 27 28
261
FTUS44 KOUN 161128
TAFSPS
TAF
KSPS 161128Z 1612/1712 24012KT P6SM OVC006
      TEMPO 1612/1615 2SM BR
     FM161700 27012KT P6SM SCT025
     FM170100 34007KT P6SM SCT250=

USA.gov is the U.S. government's official web portal to all federal, state and local government web resources and services.